sensor_id;sensor_type;location;lat;lon;timestamp;P1;P2;P0
67376;PMS7003;54261;46.086;6.588;2023-06-22T00:00:49;6.00;6.00;5.00
67376;PMS7003;54261;46.086;6.588;2023-06-22T00:05:52;8.00;7.33;5.67
67376;PMS7003;54261;46.086;6.588;2023-06-22T00:10:54;8.00;8.00;6.33
67376;PMS7003;54261;46.086;6.588;2023-06-22T00:15:56;8.33;8.33;7.00
67376;PMS7003;54261;46.086;6.588;2023-06-22T00:20:58;9.33;8.67;6.00
67376;PMS7003;54261;46.086;6.588;2023-06-22T00:26:00;7.67;6.67;4.67
67376;PMS7003;54261;46.086;6.588;2023-06-22T00:31:02;8.33;7.33;6.00
67376;PMS7003;54261;46.086;6.588;2023-06-22T00:36:04;8.67;8.67;6.00
67376;PMS7003;54261;46.086;6.588;2023-06-22T00:41:09;13.67;9.00;6.67
67376;PMS7003;54261;46.086;6.588;2023-06-22T00:46:11;5.67;5.67;4.33
67376;PMS7003;54261;46.086;6.588;2023-06-22T00:51:13;9.00;7.33;4.00
67376;PMS7003;54261;46.086;6.588;2023-06-22T00:56:15;6.67;5.33;4.00
67376;PMS7003;54261;46.086;6.588;2023-06-22T01:01:20;10.00;9.67;7.33
67376;PMS7003;54261;46.086;6.588;2023-06-22T01:06:33;7.00;7.00;5.67
67376;PMS7003;54261;46.086;6.588;2023-06-22T01:11:41;9.00;8.33;6.33
67376;PMS7003;54261;46.086;6.588;2023-06-22T01:16:52;8.00;8.00;6.00
67376;PMS7003;54261;46.086;6.588;2023-06-22T01:21:56;7.33;7.33;5.00
67376;PMS7003;54261;46.086;6.588;2023-06-22T01:27:07;8.00;6.00;4.00
67376;PMS7003;54261;46.086;6.588;2023-06-22T01:32:30;8.67;6.67;5.00
67376;PMS7003;54261;46.086;6.588;2023-06-22T01:37:35;8.33;7.00;4.67
67376;PMS7003;54261;46.086;6.588;2023-06-22T01:42:39;8.67;8.00;5.67
67376;PMS7003;54261;46.086;6.588;2023-06-22T01:47:41;7.67;7.67;7.00
67376;PMS7003;54261;46.086;6.588;2023-06-22T01:52:43;11.33;10.67;6.00
67376;PMS7003;54261;46.086;6.588;2023-06-22T01:57:45;7.00;6.33;4.67
67376;PMS7003;54261;46.086;6.588;2023-06-22T02:02:54;9.67;8.33;7.00
67376;PMS7003;54261;46.086;6.588;2023-06-22T02:08:11;7.00;7.00;4.33
67376;PMS7003;54261;46.086;6.588;2023-06-22T02:13:19;5.67;5.67;4.33
67376;PMS7003;54261;46.086;6.588;2023-06-22T02:18:21;8.33;7.00;5.67
67376;PMS7003;54261;46.086;6.588;2023-06-22T02:23:23;8.33;6.33;5.33
67376;PMS7003;54261;46.086;6.588;2023-06-22T02:28:25;7.67;7.67;6.00
67376;PMS7003;54261;46.086;6.588;2023-06-22T02:33:27;9.33;9.33;6.33
67376;PMS7003;54261;46.086;6.588;2023-06-22T02:38:28;8.00;5.67;4.00
67376;PMS7003;54261;46.086;6.588;2023-06-22T02:43:36;8.67;7.33;5.67
67376;PMS7003;54261;46.086;6.588;2023-06-22T02:48:37;10.00;8.67;6.00
67376;PMS7003;54261;46.086;6.588;2023-06-22T02:53:40;11.33;8.00;5.00
67376;PMS7003;54261;46.086;6.588;2023-06-22T02:58:47;14.33;9.00;6.33
67376;PMS7003;54261;46.086;6.588;2023-06-22T03:03:49;11.00;9.67;6.00
67376;PMS7003;54261;46.086;6.588;2023-06-22T03:08:52;12.00;8.33;5.00
67376;PMS7003;54261;46.086;6.588;2023-06-22T03:13:54;8.00;8.00;6.67
67376;PMS7003;54261;46.086;6.588;2023-06-22T03:18:56;8.33;8.33;5.67
67376;PMS7003;54261;46.086;6.588;2023-06-22T03:23:58;12.67;11.00;7.33
67376;PMS7003;54261;46.086;6.588;2023-06-22T03:29:00;11.67;10.67;8.00
67376;PMS7003;54261;46.086;6.588;2023-06-22T03:34:03;9.00;8.00;6.67
67376;PMS7003;54261;46.086;6.588;2023-06-22T03:39:05;12.67;12.67;8.00
67376;PMS7003;54261;46.086;6.588;2023-06-22T03:44:07;11.00;9.00;6.33
67376;PMS7003;54261;46.086;6.588;2023-06-22T03:49:13;10.00;8.33;7.67
67376;PMS7003;54261;46.086;6.588;2023-06-22T03:54:15;11.00;10.00;7.00
67376;PMS7003;54261;46.086;6.588;2023-06-22T03:59:17;12.67;9.00;6.33
67376;PMS7003;54261;46.086;6.588;2023-06-22T04:04:19;12.33;11.33;7.00
67376;PMS7003;54261;46.086;6.588;2023-06-22T04:09:21;8.67;8.33;6.67
67376;PMS7003;54261;46.086;6.588;2023-06-22T04:14:23;10.00;8.00;6.00
67376;PMS7003;54261;46.086;6.588;2023-06-22T04:19:25;6.67;6.67;5.00
67376;PMS7003;54261;46.086;6.588;2023-06-22T04:24:27;10.67;10.00;6.00
67376;PMS7003;54261;46.086;6.588;2023-06-22T04:29:29;9.33;8.00;6.00
67376;PMS7003;54261;46.086;6.588;2023-06-22T04:34:31;9.67;9.67;7.67
67376;PMS7003;54261;46.086;6.588;2023-06-22T04:39:33;12.67;11.00;6.33
67376;PMS7003;54261;46.086;6.588;2023-06-22T04:44:35;11.00;9.33;6.67
67376;PMS7003;54261;46.086;6.588;2023-06-22T04:49:37;12.33;10.00;7.67
67376;PMS7003;54261;46.086;6.588;2023-06-22T04:54:40;10.00;9.00;6.00
67376;PMS7003;54261;46.086;6.588;2023-06-22T04:59:48;12.67;11.67;8.67
67376;PMS7003;54261;46.086;6.588;2023-06-22T05:04:50;19.00;12.33;9.67
67376;PMS7003;54261;46.086;6.588;2023-06-22T05:09:53;13.67;11.67;8.33
67376;PMS7003;54261;46.086;6.588;2023-06-22T05:14:55;11.67;10.33;8.00
67376;PMS7003;54261;46.086;6.588;2023-06-22T05:19:57;11.33;9.67;6.33
67376;PMS7003;54261;46.086;6.588;2023-06-22T05:24:59;17.67;14.67;10.33
67376;PMS7003;54261;46.086;6.588;2023-06-22T05:30:01;10.67;8.67;8.00
67376;PMS7003;54261;46.086;6.588;2023-06-22T10:22:19;3.67;3.33;2.33
67376;PMS7003;54261;46.086;6.588;2023-06-22T10:27:21;4.00;3.33;3.00
67376;PMS7003;54261;46.086;6.588;2023-06-22T10:32:23;1.33;1.33;1.33
67376;PMS7003;54261;46.086;6.588;2023-06-22T10:37:25;4.67;4.67;3.00
67376;PMS7003;54261;46.086;6.588;2023-06-22T10:42:27;7.00;6.33;4.00
67376;PMS7003;54261;46.086;6.588;2023-06-22T15:40:07;0.00;0.00;0.00
67376;PMS7003;54261;46.086;6.588;2023-06-22T15:45:09;0.00;0.00;0.00
67376;PMS7003;54261;46.086;6.588;2023-06-22T15:50:11;0.00;0.00;0.00
67376;PMS7003;54261;46.086;6.588;2023-06-22T15:55:13;0.00;0.00;0.00
67376;PMS7003;54261;46.086;6.588;2023-06-22T16:00:16;0.00;0.00;0.00
67376;PMS7003;54261;46.086;6.588;2023-06-22T16:05:19;0.00;0.00;0.00
67376;PMS7003;54261;46.086;6.588;2023-06-22T16:10:21;0.33;0.33;0.00
67376;PMS7003;54261;46.086;6.588;2023-06-22T16:15:23;0.00;0.00;0.00
67376;PMS7003;54261;46.086;6.588;2023-06-22T16:20:25;0.00;0.00;0.00
67376;PMS7003;54261;46.086;6.588;2023-06-22T16:25:26;0.00;0.00;0.00
67376;PMS7003;54261;46.086;6.588;2023-06-22T16:30:28;0.00;0.00;0.00
67376;PMS7003;54261;46.086;6.588;2023-06-22T16:35:31;0.67;0.00;0.00
67376;PMS7003;54261;46.086;6.588;2023-06-22T16:40:38;2.00;0.00;0.00
67376;PMS7003;54261;46.086;6.588;2023-06-22T16:45:40;0.00;0.00;0.00
67376;PMS7003;54261;46.086;6.588;2023-06-22T16:50:42;0.00;0.00;0.00
67376;PMS7003;54261;46.086;6.588;2023-06-22T16:55:43;0.00;0.00;0.00
67376;PMS7003;54261;46.086;6.588;2023-06-22T17:00:55;1.00;1.00;0.00
67376;PMS7003;54261;46.086;6.588;2023-06-22T17:05:59;0.00;0.00;0.00
67376;PMS7003;54261;46.086;6.588;2023-06-22T17:11:02;0.00;0.00;0.00
67376;PMS7003;54261;46.086;6.588;2023-06-22T17:16:04;1.00;1.00;0.00
67376;PMS7003;54261;46.086;6.588;2023-06-22T17:21:10;2.00;1.00;0.00
67376;PMS7003;54261;46.086;6.588;2023-06-22T17:26:13;0.67;0.00;0.00
67376;PMS7003;54261;46.086;6.588;2023-06-22T17:31:17;0.33;0.33;0.00
67376;PMS7003;54261;46.086;6.588;2023-06-22T17:36:20;0.00;0.00;0.00
67376;PMS7003;54261;46.086;6.588;2023-06-22T17:41:21;0.33;0.33;0.00
67376;PMS7003;54261;46.086;6.588;2023-06-22T17:46:24;0.33;0.33;0.00
67376;PMS7003;54261;46.086;6.588;2023-06-22T17:51:27;0.00;0.00;0.00
67376;PMS7003;54261;46.086;6.588;2023-06-22T17:56:31;0.00;0.00;0.00
67376;PMS7003;54261;46.086;6.588;2023-06-22T18:01:37;0.00;0.00;0.00
67376;PMS7003;54261;46.086;6.588;2023-06-22T18:06:41;0.00;0.00;0.00
67376;PMS7003;54261;46.086;6.588;2023-06-22T18:11:45;0.00;0.00;0.00
67376;PMS7003;54261;46.086;6.588;2023-06-22T18:16:49;0.00;0.00;0.00
67376;PMS7003;54261;46.086;6.588;2023-06-22T18:21:52;0.00;0.00;0.00
67376;PMS7003;54261;46.086;6.588;2023-06-22T18:26:54;0.67;0.00;0.00
67376;PMS7003;54261;46.086;6.588;2023-06-22T18:31:57;0.00;0.00;0.00
67376;PMS7003;54261;46.086;6.588;2023-06-22T18:37:00;0.00;0.00;0.00
67376;PMS7003;54261;46.086;6.588;2023-06-22T18:42:10;0.00;0.00;0.00
67376;PMS7003;54261;46.086;6.588;2023-06-22T18:47:12;0.00;0.00;0.00
67376;PMS7003;54261;46.086;6.588;2023-06-22T18:52:15;0.00;0.00;0.00
67376;PMS7003;54261;46.086;6.588;2023-06-22T18:57:22;0.00;0.00;0.00
67376;PMS7003;54261;46.086;6.588;2023-06-22T19:12:55;0.00;0.00;0.00
67376;PMS7003;54261;46.086;6.588;2023-06-22T19:23:28;0.00;0.00;0.00
67376;PMS7003;54261;46.086;6.588;2023-06-22T19:28:32;0.00;0.00;0.00
67376;PMS7003;54261;46.086;6.588;2023-06-22T19:33:34;0.00;0.00;0.00
67376;PMS7003;54261;46.086;6.588;2023-06-22T19:38:37;0.00;0.00;0.00
67376;PMS7003;54261;46.086;6.588;2023-06-22T19:43:41;0.00;0.00;0.00
67376;PMS7003;54261;46.086;6.588;2023-06-22T19:48:44;0.00;0.00;0.00
67376;PMS7003;54261;46.086;6.588;2023-06-22T19:53:47;0.00;0.00;0.00
67376;PMS7003;54261;46.086;6.588;2023-06-22T19:58:49;1.00;0.00;0.00
67376;PMS7003;54261;46.086;6.588;2023-06-22T20:03:54;1.00;1.00;0.00
67376;PMS7003;54261;46.086;6.588;2023-06-22T20:08:56;0.00;0.00;0.00
67376;PMS7003;54261;46.086;6.588;2023-06-22T20:14:01;0.67;0.67;0.67
67376;PMS7003;54261;46.086;6.588;2023-06-22T20:19:07;1.67;1.67;0.67
67376;PMS7003;54261;46.086;6.588;2023-06-22T20:24:12;2.67;2.00;1.00
67376;PMS7003;54261;46.086;6.588;2023-06-22T20:34:40;2.00;1.00;1.00
67376;PMS7003;54261;46.086;6.588;2023-06-22T20:39:46;2.33;1.33;0.67
67376;PMS7003;54261;46.086;6.588;2023-06-22T20:44:50;2.00;2.00;1.00
67376;PMS7003;54261;46.086;6.588;2023-06-22T20:49:53;0.67;0.67;0.00
67376;PMS7003;54261;46.086;6.588;2023-06-22T20:54:58;1.00;1.00;1.00
67376;PMS7003;54261;46.086;6.588;2023-06-22T21:00:03;1.00;1.00;1.00
67376;PMS7003;54261;46.086;6.588;2023-06-22T21:05:07;0.00;0.00;0.00
67376;PMS7003;54261;46.086;6.588;2023-06-22T21:10:09;1.00;1.00;1.00
67376;PMS7003;54261;46.086;6.588;2023-06-22T21:15:11;0.00;0.00;0.00
67376;PMS7003;54261;46.086;6.588;2023-06-22T21:20:13;1.00;1.00;0.33
67376;PMS7003;54261;46.086;6.588;2023-06-22T21:25:15;1.00;1.00;1.00
67376;PMS7003;54261;46.086;6.588;2023-06-22T21:30:17;1.00;1.00;1.00
67376;PMS7003;54261;46.086;6.588;2023-06-22T21:35:19;0.67;0.67;0.33
67376;PMS7003;54261;46.086;6.588;2023-06-22T21:40:20;1.00;1.00;1.00
67376;PMS7003;54261;46.086;6.588;2023-06-22T21:45:23;0.00;0.00;0.00
67376;PMS7003;54261;46.086;6.588;2023-06-22T21:50:25;0.00;0.00;0.00
67376;PMS7003;54261;46.086;6.588;2023-06-22T21:55:27;1.00;1.00;0.00
67376;PMS7003;54261;46.086;6.588;2023-06-22T22:00:30;0.00;0.00;0.00
67376;PMS7003;54261;46.086;6.588;2023-06-22T22:05:32;1.00;0.00;0.00
67376;PMS7003;54261;46.086;6.588;2023-06-22T22:10:34;1.00;1.00;1.00
67376;PMS7003;54261;46.086;6.588;2023-06-22T22:15:38;1.67;0.33;0.00
67376;PMS7003;54261;46.086;6.588;2023-06-22T22:20:40;1.00;1.00;1.00
67376;PMS7003;54261;46.086;6.588;2023-06-22T22:25:42;3.00;2.00;1.33
67376;PMS7003;54261;46.086;6.588;2023-06-22T22:30:43;2.67;2.67;2.00
67376;PMS7003;54261;46.086;6.588;2023-06-22T22:35:46;2.00;1.00;1.00
67376;PMS7003;54261;46.086;6.588;2023-06-22T22:40:48;2.00;2.00;2.00
67376;PMS7003;54261;46.086;6.588;2023-06-22T22:45:49;1.00;1.00;0.67
67376;PMS7003;54261;46.086;6.588;2023-06-22T22:50:51;1.00;1.00;1.00
67376;PMS7003;54261;46.086;6.588;2023-06-22T22:55:54;0.33;0.33;0.00
67376;PMS7003;54261;46.086;6.588;2023-06-22T23:00:56;1.33;0.00;0.00
67376;PMS7003;54261;46.086;6.588;2023-06-22T23:05:58;0.33;0.33;0.00
67376;PMS7003;54261;46.086;6.588;2023-06-22T23:11:00;2.00;2.00;1.00
67376;PMS7003;54261;46.086;6.588;2023-06-22T23:16:02;3.33;2.33;2.00
67376;PMS7003;54261;46.086;6.588;2023-06-22T23:21:04;4.33;3.33;2.67
67376;PMS7003;54261;46.086;6.588;2023-06-22T23:26:06;8.00;7.00;5.00
67376;PMS7003;54261;46.086;6.588;2023-06-22T23:31:09;10.33;10.00;6.33
67376;PMS7003;54261;46.086;6.588;2023-06-22T23:36:11;5.00;4.00;3.33
67376;PMS7003;54261;46.086;6.588;2023-06-22T23:41:12;30.00;13.67;8.00
67376;PMS7003;54261;46.086;6.588;2023-06-22T23:46:14;19.33;10.33;6.00
67376;PMS7003;54261;46.086;6.588;2023-06-22T23:51:16;4.33;4.00;3.00
67376;PMS7003;54261;46.086;6.588;2023-06-22T23:56:18;3.00;3.00;2.33
